sensor_id;sensor_type;location;lat;lon;timestamp;P1;P2;P0
65012;PMS5003;51715;39.432;-77.518;2024-01-15T00:01:29;1;1;
65012;PMS5003;51715;39.432;-77.518;2024-01-15T00:03:59;3;1;
65012;PMS5003;51715;39.432;-77.518;2024-01-15T00:06:27;1;1;
65012;PMS5003;51715;39.432;-77.518;2024-01-15T00:08:57;1;1;
65012;PMS5003;51715;39.432;-77.518;2024-01-15T00:11:25;5;5;
65012;PMS5003;51715;39.432;-77.518;2024-01-15T00:13:56;2;2;
65012;PMS5003;51715;39.432;-77.518;2024-01-15T00:16:25;3;3;
65012;PMS5003;51715;39.432;-77.518;2024-01-15T00:18:53;6;5;
65012;PMS5003;51715;39.432;-77.518;2024-01-15T00:21:21;4;4;
65012;PMS5003;51715;39.432;-77.518;2024-01-15T00:23:52;5;4;
65012;PMS5003;51715;39.432;-77.518;2024-01-15T00:26:20;7;3;
65012;PMS5003;51715;39.432;-77.518;2024-01-15T00:28:50;14;6;
65012;PMS5003;51715;39.432;-77.518;2024-01-15T00:31:18;8;8;
65012;PMS5003;51715;39.432;-77.518;2024-01-15T00:33:46;5;4;
65012;PMS5003;51715;39.432;-77.518;2024-01-15T00:36:16;4;4;
65012;PMS5003;51715;39.432;-77.518;2024-01-15T00:38:45;5;4;
65012;PMS5003;51715;39.432;-77.518;2024-01-15T00:41:14;3;3;
65012;PMS5003;51715;39.432;-77.518;2024-01-15T00:43:43;2;2;
65012;PMS5003;51715;39.432;-77.518;2024-01-15T00:46:13;4;3;
65012;PMS5003;51715;39.432;-77.518;2024-01-15T00:48:44;5;4;
65012;PMS5003;51715;39.432;-77.518;2024-01-15T00:51:13;4;2;
65012;PMS5003;51715;39.432;-77.518;2024-01-15T00:53:41;2;2;
65012;PMS5003;51715;39.432;-77.518;2024-01-15T00:56:10;1;1;
65012;PMS5003;51715;39.432;-77.518;2024-01-15T00:58:39;3;2;
65012;PMS5003;51715;39.432;-77.518;2024-01-15T01:01:07;0;0;
65012;PMS5003;51715;39.432;-77.518;2024-01-15T01:03:35;1;1;
65012;PMS5003;51715;39.432;-77.518;2024-01-15T01:06:03;0;0;
65012;PMS5003;51715;39.432;-77.518;2024-01-15T01:08:35;0;0;
65012;PMS5003;51715;39.432;-77.518;2024-01-15T01:11:04;0;0;
65012;PMS5003;51715;39.432;-77.518;2024-01-15T01:13:33;2;2;
65012;PMS5003;51715;39.432;-77.518;2024-01-15T01:16:01;2;1;
65012;PMS5003;51715;39.432;-77.518;2024-01-15T01:18:31;0;0;
65012;PMS5003;51715;39.432;-77.518;2024-01-15T01:21:00;2;2;
65012;PMS5003;51715;39.432;-77.518;2024-01-15T01:23:28;2;0;
65012;PMS5003;51715;39.432;-77.518;2024-01-15T01:25:58;1;1;
65012;PMS5003;51715;39.432;-77.518;2024-01-15T01:28:28;1;0;
65012;PMS5003;51715;39.432;-77.518;2024-01-15T01:30:58;2;2;
65012;PMS5003;51715;39.432;-77.518;2024-01-15T01:33:27;0;0;
65012;PMS5003;51715;39.432;-77.518;2024-01-15T01:35:57;1;1;
65012;PMS5003;51715;39.432;-77.518;2024-01-15T01:38:25;1;1;
65012;PMS5003;51715;39.432;-77.518;2024-01-15T01:40:55;1;1;
65012;PMS5003;51715;39.432;-77.518;2024-01-15T01:43:26;2;1;
65012;PMS5003;51715;39.432;-77.518;2024-01-15T01:45:57;1;1;
65012;PMS5003;51715;39.432;-77.518;2024-01-15T01:48:28;1;1;
65012;PMS5003;51715;39.432;-77.518;2024-01-15T01:50:59;1;1;
65012;PMS5003;51715;39.432;-77.518;2024-01-15T01:53:30;1;1;
65012;PMS5003;51715;39.432;-77.518;2024-01-15T01:56:01;1;1;
65012;PMS5003;51715;39.432;-77.518;2024-01-15T01:58:33;0;0;
65012;PMS5003;51715;39.432;-77.518;2024-01-15T02:01:01;1;1;
65012;PMS5003;51715;39.432;-77.518;2024-01-15T02:03:31;0;0;
65012;PMS5003;51715;39.432;-77.518;2024-01-15T02:06:02;1;1;
65012;PMS5003;51715;39.432;-77.518;2024-01-15T02:08:33;1;1;
65012;PMS5003;51715;39.432;-77.518;2024-01-15T02:11:03;0;0;
65012;PMS5003;51715;39.432;-77.518;2024-01-15T02:13:33;1;1;
65012;PMS5003;51715;39.432;-77.518;2024-01-15T02:16:03;3;2;
65012;PMS5003;51715;39.432;-77.518;2024-01-15T02:18:39;1;1;
65012;PMS5003;51715;39.432;-77.518;2024-01-15T02:21:10;2;2;
65012;PMS5003;51715;39.432;-77.518;2024-01-15T02:23:42;3;3;
65012;PMS5003;51715;39.432;-77.518;2024-01-15T02:26:12;3;2;
65012;PMS5003;51715;39.432;-77.518;2024-01-15T02:28:42;4;2;
65012;PMS5003;51715;39.432;-77.518;2024-01-15T02:31:12;3;2;
65012;PMS5003;51715;39.432;-77.518;2024-01-15T02:33:42;1;1;
65012;PMS5003;51715;39.432;-77.518;2024-01-15T02:36:12;4;4;
65012;PMS5003;51715;39.432;-77.518;2024-01-15T02:38:42;2;2;
65012;PMS5003;51715;39.432;-77.518;2024-01-15T02:41:12;3;2;
65012;PMS5003;51715;39.432;-77.518;2024-01-15T02:43:42;3;3;
65012;PMS5003;51715;39.432;-77.518;2024-01-15T02:46:13;2;2;
65012;PMS5003;51715;39.432;-77.518;2024-01-15T02:48:42;2;2;
65012;PMS5003;51715;39.432;-77.518;2024-01-15T02:51:13;2;2;
65012;PMS5003;51715;39.432;-77.518;2024-01-15T02:53:44;3;2;
65012;PMS5003;51715;39.432;-77.518;2024-01-15T02:56:13;3;1;
65012;PMS5003;51715;39.432;-77.518;2024-01-15T02:58:42;2;2;
65012;PMS5003;51715;39.432;-77.518;2024-01-15T03:01:10;1;1;
65012;PMS5003;51715;39.432;-77.518;2024-01-15T03:03:39;3;3;
65012;PMS5003;51715;39.432;-77.518;2024-01-15T03:06:09;1;1;
65012;PMS5003;51715;39.432;-77.518;2024-01-15T03:08:38;3;2;
65012;PMS5003;51715;39.432;-77.518;2024-01-15T03:11:08;3;3;
65012;PMS5003;51715;39.432;-77.518;2024-01-15T03:13:36;3;3;
65012;PMS5003;51715;39.432;-77.518;2024-01-15T03:16:05;3;3;
65012;PMS5003;51715;39.432;-77.518;2024-01-15T03:18:34;4;3;
65012;PMS5003;51715;39.432;-77.518;2024-01-15T03:21:03;4;3;
65012;PMS5003;51715;39.432;-77.518;2024-01-15T03:23:32;4;3;
65012;PMS5003;51715;39.432;-77.518;2024-01-15T03:26:01;2;1;
65012;PMS5003;51715;39.432;-77.518;2024-01-15T03:28:30;2;2;
65012;PMS5003;51715;39.432;-77.518;2024-01-15T03:31:00;2;2;
65012;PMS5003;51715;39.432;-77.518;2024-01-15T03:33:28;3;3;
65012;PMS5003;51715;39.432;-77.518;2024-01-15T03:35:56;3;3;
65012;PMS5003;51715;39.432;-77.518;2024-01-15T03:38:26;1;1;
65012;PMS5003;51715;39.432;-77.518;2024-01-15T03:40:58;3;3;
65012;PMS5003;51715;39.432;-77.518;2024-01-15T03:43:27;2;2;
65012;PMS5003;51715;39.432;-77.518;2024-01-15T03:45:57;5;2;
65012;PMS5003;51715;39.432;-77.518;2024-01-15T03:48:25;2;2;
65012;PMS5003;51715;39.432;-77.518;2024-01-15T03:50:52;2;2;
65012;PMS5003;51715;39.432;-77.518;2024-01-15T03:53:22;1;1;
65012;PMS5003;51715;39.432;-77.518;2024-01-15T03:55:50;2;2;
65012;PMS5003;51715;39.432;-77.518;2024-01-15T03:58:22;3;3;
65012;PMS5003;51715;39.432;-77.518;2024-01-15T04:00:50;4;2;
65012;PMS5003;51715;39.432;-77.518;2024-01-15T04:03:20;6;6;
65012;PMS5003;51715;39.432;-77.518;2024-01-15T04:05:49;4;2;
65012;PMS5003;51715;39.432;-77.518;2024-01-15T04:08:17;5;5;
65012;PMS5003;51715;39.432;-77.518;2024-01-15T04:10:45;5;3;
65012;PMS5003;51715;39.432;-77.518;2024-01-15T04:13:13;3;3;
65012;PMS5003;51715;39.432;-77.518;2024-01-15T04:15:41;5;2;
65012;PMS5003;51715;39.432;-77.518;2024-01-15T04:18:10;8;7;
65012;PMS5003;51715;39.432;-77.518;2024-01-15T04:20:38;3;2;
65012;PMS5003;51715;39.432;-77.518;2024-01-15T04:23:07;3;3;
65012;PMS5003;51715;39.432;-77.518;2024-01-15T04:25:35;2;2;
65012;PMS5003;51715;39.432;-77.518;2024-01-15T04:28:03;5;3;
65012;PMS5003;51715;39.432;-77.518;2024-01-15T04:30:32;3;2;
65012;PMS5003;51715;39.432;-77.518;2024-01-15T04:33:02;3;1;
65012;PMS5003;51715;39.432;-77.518;2024-01-15T04:35:30;3;3;
65012;PMS5003;51715;39.432;-77.518;2024-01-15T04:37:58;6;5;
65012;PMS5003;51715;39.432;-77.518;2024-01-15T04:40:27;5;3;
65012;PMS5003;51715;39.432;-77.518;2024-01-15T04:42:55;6;5;
65012;PMS5003;51715;39.432;-77.518;2024-01-15T04:45:23;3;3;
65012;PMS5003;51715;39.432;-77.518;2024-01-15T04:47:52;9;3;
65012;PMS5003;51715;39.432;-77.518;2024-01-15T04:50:21;5;2;
65012;PMS5003;51715;39.432;-77.518;2024-01-15T04:52:49;4;2;
65012;PMS5003;51715;39.432;-77.518;2024-01-15T04:55:18;2;2;
65012;PMS5003;51715;39.432;-77.518;2024-01-15T04:57:46;1;1;
65012;PMS5003;51715;39.432;-77.518;2024-01-15T05:04:05;6;1;
65012;PMS5003;51715;39.432;-77.518;2024-01-15T05:06:32;1;1;
65012;PMS5003;51715;39.432;-77.518;2024-01-15T05:09:02;2;2;
65012;PMS5003;51715;39.432;-77.518;2024-01-15T05:11:30;3;1;
65012;PMS5003;51715;39.432;-77.518;2024-01-15T05:13:59;3;2;
65012;PMS5003;51715;39.432;-77.518;2024-01-15T05:16:27;1;1;
65012;PMS5003;51715;39.432;-77.518;2024-01-15T05:18:55;2;2;
65012;PMS5003;51715;39.432;-77.518;2024-01-15T05:21:25;2;2;
65012;PMS5003;51715;39.432;-77.518;2024-01-15T05:23:54;0;0;
65012;PMS5003;51715;39.432;-77.518;2024-01-15T05:26:23;4;1;
65012;PMS5003;51715;39.432;-77.518;2024-01-15T05:28:51;3;1;
65012;PMS5003;51715;39.432;-77.518;2024-01-15T05:31:20;2;2;
65012;PMS5003;51715;39.432;-77.518;2024-01-15T05:33:48;0;0;
65012;PMS5003;51715;39.432;-77.518;2024-01-15T05:36:16;3;1;
65012;PMS5003;51715;39.432;-77.518;2024-01-15T05:38:44;3;3;
65012;PMS5003;51715;39.432;-77.518;2024-01-15T05:41:12;1;1;
65012;PMS5003;51715;39.432;-77.518;2024-01-15T05:43:42;1;1;
65012;PMS5003;51715;39.432;-77.518;2024-01-15T05:46:09;3;3;
65012;PMS5003;51715;39.432;-77.518;2024-01-15T05:48:39;4;3;
65012;PMS5003;51715;39.432;-77.518;2024-01-15T05:51:07;1;1;
65012;PMS5003;51715;39.432;-77.518;2024-01-15T05:53:35;0;0;
65012;PMS5003;51715;39.432;-77.518;2024-01-15T05:56:04;1;1;
65012;PMS5003;51715;39.432;-77.518;2024-01-15T05:58:33;3;1;
65012;PMS5003;51715;39.432;-77.518;2024-01-15T06:01:00;2;1;
65012;PMS5003;51715;39.432;-77.518;2024-01-15T06:03:28;4;3;
65012;PMS5003;51715;39.432;-77.518;2024-01-15T06:05:58;1;1;
65012;PMS5003;51715;39.432;-77.518;2024-01-15T06:08:27;1;1;
65012;PMS5003;51715;39.432;-77.518;2024-01-15T06:10:57;2;1;
65012;PMS5003;51715;39.432;-77.518;2024-01-15T06:13:25;1;1;
65012;PMS5003;51715;39.432;-77.518;2024-01-15T06:15:54;2;1;
65012;PMS5003;51715;39.432;-77.518;2024-01-15T06:18:23;2;2;
65012;PMS5003;51715;39.432;-77.518;2024-01-15T06:20:51;1;1;
65012;PMS5003;51715;39.432;-77.518;2024-01-15T06:23:19;2;1;
65012;PMS5003;51715;39.432;-77.518;2024-01-15T06:25:47;2;2;
65012;PMS5003;51715;39.432;-77.518;2024-01-15T06:28:17;2;0;
65012;PMS5003;51715;39.432;-77.518;2024-01-15T06:30:44;0;0;
65012;PMS5003;51715;39.432;-77.518;2024-01-15T06:33:12;3;3;
65012;PMS5003;51715;39.432;-77.518;2024-01-15T06:35:41;3;2;
65012;PMS5003;51715;39.432;-77.518;2024-01-15T06:38:09;1;1;
65012;PMS5003;51715;39.432;-77.518;2024-01-15T06:40:37;2;2;
65012;PMS5003;51715;39.432;-77.518;2024-01-15T06:43:05;1;1;
65012;PMS5003;51715;39.432;-77.518;2024-01-15T06:45:33;1;1;
65012;PMS5003;51715;39.432;-77.518;2024-01-15T06:48:01;3;3;
65012;PMS5003;51715;39.432;-77.518;2024-01-15T06:50:29;1;1;
65012;PMS5003;51715;39.432;-77.518;2024-01-15T06:52:57;2;2;
65012;PMS5003;51715;39.432;-77.518;2024-01-15T06:55:27;3;3;
65012;PMS5003;51715;39.432;-77.518;2024-01-15T06:57:55;2;1;
65012;PMS5003;51715;39.432;-77.518;2024-01-15T07:00:23;3;3;
65012;PMS5003;51715;39.432;-77.518;2024-01-15T07:02:51;2;2;
65012;PMS5003;51715;39.432;-77.518;2024-01-15T07:05:20;2;2;
65012;PMS5003;51715;39.432;-77.518;2024-01-15T07:07:48;2;2;
65012;PMS5003;51715;39.432;-77.518;2024-01-15T07:10:16;0;0;
65012;PMS5003;51715;39.432;-77.518;2024-01-15T07:12:45;2;2;
65012;PMS5003;51715;39.432;-77.518;2024-01-15T07:15:15;1;1;
65012;PMS5003;51715;39.432;-77.518;2024-01-15T07:17:43;2;2;
65012;PMS5003;51715;39.432;-77.518;2024-01-15T07:20:11;1;1;
65012;PMS5003;51715;39.432;-77.518;2024-01-15T07:22:41;3;2;
65012;PMS5003;51715;39.432;-77.518;2024-01-15T07:25:13;3;1;
65012;PMS5003;51715;39.432;-77.518;2024-01-15T07:27:44;3;2;
65012;PMS5003;51715;39.432;-77.518;2024-01-15T07:30:12;1;1;
65012;PMS5003;51715;39.432;-77.518;2024-01-15T07:32:40;2;1;
65012;PMS5003;51715;39.432;-77.518;2024-01-15T07:35:09;4;3;
65012;PMS5003;51715;39.432;-77.518;2024-01-15T07:37:39;1;1;
65012;PMS5003;51715;39.432;-77.518;2024-01-15T07:40:08;6;5;
65012;PMS5003;51715;39.432;-77.518;2024-01-15T07:42:37;2;2;
65012;PMS5003;51715;39.432;-77.518;2024-01-15T07:45:05;4;2;
65012;PMS5003;51715;39.432;-77.518;2024-01-15T07:47:34;1;1;
65012;PMS5003;51715;39.432;-77.518;2024-01-15T07:50:02;6;3;
65012;PMS5003;51715;39.432;-77.518;2024-01-15T07:52:32;0;0;
65012;PMS5003;51715;39.432;-77.518;2024-01-15T07:55:01;2;1;
65012;PMS5003;51715;39.432;-77.518;2024-01-15T07:57:29;4;2;
65012;PMS5003;51715;39.432;-77.518;2024-01-15T07:59:59;5;3;
65012;PMS5003;51715;39.432;-77.518;2024-01-15T08:02:27;3;2;
65012;PMS5003;51715;39.432;-77.518;2024-01-15T08:04:56;2;2;
65012;PMS5003;51715;39.432;-77.518;2024-01-15T08:07:24;1;1;
65012;PMS5003;51715;39.432;-77.518;2024-01-15T08:09:52;3;3;
65012;PMS5003;51715;39.432;-77.518;2024-01-15T08:12:22;2;2;
65012;PMS5003;51715;39.432;-77.518;2024-01-15T08:14:50;4;2;
65012;PMS5003;51715;39.432;-77.518;2024-01-15T08:17:18;3;3;
65012;PMS5003;51715;39.432;-77.518;2024-01-15T08:19:49;3;1;
65012;PMS5003;51715;39.432;-77.518;2024-01-15T08:22:17;2;1;
65012;PMS5003;51715;39.432;-77.518;2024-01-15T08:24:45;1;1;
65012;PMS5003;51715;39.432;-77.518;2024-01-15T08:27:13;3;2;
65012;PMS5003;51715;39.432;-77.518;2024-01-15T08:29:43;4;3;
65012;PMS5003;51715;39.432;-77.518;2024-01-15T08:32:12;2;2;
65012;PMS5003;51715;39.432;-77.518;2024-01-15T08:34:40;3;2;
65012;PMS5003;51715;39.432;-77.518;2024-01-15T08:37:08;3;1;
65012;PMS5003;51715;39.432;-77.518;2024-01-15T08:39:36;4;3;
65012;PMS5003;51715;39.432;-77.518;2024-01-15T08:42:04;3;3;
65012;PMS5003;51715;39.432;-77.518;2024-01-15T08:44:33;1;1;
65012;PMS5003;51715;39.432;-77.518;2024-01-15T08:47:01;5;3;
65012;PMS5003;51715;39.432;-77.518;2024-01-15T08:49:29;5;4;
65012;PMS5003;51715;39.432;-77.518;2024-01-15T08:51:57;3;2;
65012;PMS5003;51715;39.432;-77.518;2024-01-15T08:54:25;1;1;
65012;PMS5003;51715;39.432;-77.518;2024-01-15T08:56:54;3;1;
65012;PMS5003;51715;39.432;-77.518;2024-01-15T08:59:25;1;1;
65012;PMS5003;51715;39.432;-77.518;2024-01-15T09:01:53;4;2;
65012;PMS5003;51715;39.432;-77.518;2024-01-15T09:04:21;4;4;
65012;PMS5003;51715;39.432;-77.518;2024-01-15T09:06:49;7;2;
65012;PMS5003;51715;39.432;-77.518;2024-01-15T09:09:17;5;2;
65012;PMS5003;51715;39.432;-77.518;2024-01-15T09:11:45;1;1;
65012;PMS5003;51715;39.432;-77.518;2024-01-15T09:14:13;2;0;
65012;PMS5003;51715;39.432;-77.518;2024-01-15T09:16:42;2;2;
65012;PMS5003;51715;39.432;-77.518;2024-01-15T09:19:10;3;2;
65012;PMS5003;51715;39.432;-77.518;2024-01-15T09:21:40;1;1;
65012;PMS5003;51715;39.432;-77.518;2024-01-15T09:24:07;1;1;
65012;PMS5003;51715;39.432;-77.518;2024-01-15T09:26:37;3;1;
65012;PMS5003;51715;39.432;-77.518;2024-01-15T09:29:05;1;1;
65012;PMS5003;51715;39.432;-77.518;2024-01-15T09:31:34;4;4;
65012;PMS5003;51715;39.432;-77.518;2024-01-15T09:34:02;3;2;
65012;PMS5003;51715;39.432;-77.518;2024-01-15T09:36:31;1;1;
65012;PMS5003;51715;39.432;-77.518;2024-01-15T09:38:58;1;1;
65012;PMS5003;51715;39.432;-77.518;2024-01-15T09:41:27;2;1;
65012;PMS5003;51715;39.432;-77.518;2024-01-15T09:43:54;4;3;
65012;PMS5003;51715;39.432;-77.518;2024-01-15T09:46:23;2;2;
65012;PMS5003;51715;39.432;-77.518;2024-01-15T09:48:51;7;2;
65012;PMS5003;51715;39.432;-77.518;2024-01-15T09:51:20;2;2;
65012;PMS5003;51715;39.432;-77.518;2024-01-15T09:53:49;2;1;
65012;PMS5003;51715;39.432;-77.518;2024-01-15T09:56:18;1;1;
65012;PMS5003;51715;39.432;-77.518;2024-01-15T09:58:46;3;2;
65012;PMS5003;51715;39.432;-77.518;2024-01-15T10:01:15;3;3;
65012;PMS5003;51715;39.432;-77.518;2024-01-15T10:03:47;2;2;
65012;PMS5003;51715;39.432;-77.518;2024-01-15T10:06:15;5;4;
65012;PMS5003;51715;39.432;-77.518;2024-01-15T10:08:44;2;2;
65012;PMS5003;51715;39.432;-77.518;2024-01-15T10:11:16;5;4;
65012;PMS5003;51715;39.432;-77.518;2024-01-15T10:13:44;2;2;
65012;PMS5003;51715;39.432;-77.518;2024-01-15T10:16:13;2;1;
65012;PMS5003;51715;39.432;-77.518;2024-01-15T10:18:41;1;1;
65012;PMS5003;51715;39.432;-77.518;2024-01-15T10:21:09;4;3;
65012;PMS5003;51715;39.432;-77.518;2024-01-15T10:23:38;3;2;
65012;PMS5003;51715;39.432;-77.518;2024-01-15T10:26:06;2;2;
65012;PMS5003;51715;39.432;-77.518;2024-01-15T10:28:35;3;3;
65012;PMS5003;51715;39.432;-77.518;2024-01-15T10:31:03;3;1;
65012;PMS5003;51715;39.432;-77.518;2024-01-15T10:33:32;2;2;
65012;PMS5003;51715;39.432;-77.518;2024-01-15T10:36:00;3;3;
65012;PMS5003;51715;39.432;-77.518;2024-01-15T10:38:28;2;2;
65012;PMS5003;51715;39.432;-77.518;2024-01-15T10:40:56;2;2;
65012;PMS5003;51715;39.432;-77.518;2024-01-15T10:43:24;2;2;
65012;PMS5003;51715;39.432;-77.518;2024-01-15T10:45:53;2;2;
65012;PMS5003;51715;39.432;-77.518;2024-01-15T10:48:21;2;1;
65012;PMS5003;51715;39.432;-77.518;2024-01-15T10:50:48;1;1;
65012;PMS5003;51715;39.432;-77.518;2024-01-15T10:53:17;1;1;
65012;PMS5003;51715;39.432;-77.518;2024-01-15T10:55:46;2;2;
65012;PMS5003;51715;39.432;-77.518;2024-01-15T10:58:14;4;2;
65012;PMS5003;51715;39.432;-77.518;2024-01-15T11:00:43;3;3;
65012;PMS5003;51715;39.432;-77.518;2024-01-15T11:03:13;5;5;
65012;PMS5003;51715;39.432;-77.518;2024-01-15T11:05:42;2;2;
65012;PMS5003;51715;39.432;-77.518;2024-01-15T11:08:11;2;2;
65012;PMS5003;51715;39.432;-77.518;2024-01-15T11:10:40;3;3;
65012;PMS5003;51715;39.432;-77.518;2024-01-15T11:13:10;2;2;
65012;PMS5003;51715;39.432;-77.518;2024-01-15T11:16:14;3;2;
65012;PMS5003;51715;39.432;-77.518;2024-01-15T11:18:43;2;2;
65012;PMS5003;51715;39.432;-77.518;2024-01-15T11:21:29;4;4;
65012;PMS5003;51715;39.432;-77.518;2024-01-15T11:23:58;6;6;
65012;PMS5003;51715;39.432;-77.518;2024-01-15T11:26:28;3;3;
65012;PMS5003;51715;39.432;-77.518;2024-01-15T11:28:58;5;4;
65012;PMS5003;51715;39.432;-77.518;2024-01-15T11:31:56;4;4;
65012;PMS5003;51715;39.432;-77.518;2024-01-15T11:34:58;4;4;
65012;PMS5003;51715;39.432;-77.518;2024-01-15T11:37:27;4;4;
65012;PMS5003;51715;39.432;-77.518;2024-01-15T11:40:01;2;2;
65012;PMS5003;51715;39.432;-77.518;2024-01-15T11:42:29;3;3;
65012;PMS5003;51715;39.432;-77.518;2024-01-15T11:44:57;7;4;
65012;PMS5003;51715;39.432;-77.518;2024-01-15T11:47:35;5;3;
65012;PMS5003;51715;39.432;-77.518;2024-01-15T11:50:27;2;2;
65012;PMS5003;51715;39.432;-77.518;2024-01-15T11:52:59;5;5;
65012;PMS5003;51715;39.432;-77.518;2024-01-15T11:55:30;5;5;
65012;PMS5003;51715;39.432;-77.518;2024-01-15T11:58:01;4;3;
65012;PMS5003;51715;39.432;-77.518;2024-01-15T12:00:34;3;3;
65012;PMS5003;51715;39.432;-77.518;2024-01-15T12:03:10;4;3;
65012;PMS5003;51715;39.432;-77.518;2024-01-15T12:05:40;4;4;
65012;PMS5003;51715;39.432;-77.518;2024-01-15T12:08:09;5;3;
65012;PMS5003;51715;39.432;-77.518;2024-01-15T12:10:36;4;4;
65012;PMS5003;51715;39.432;-77.518;2024-01-15T12:13:05;4;4;
65012;PMS5003;51715;39.432;-77.518;2024-01-15T12:15:38;2;2;
65012;PMS5003;51715;39.432;-77.518;2024-01-15T12:18:07;3;3;
65012;PMS5003;51715;39.432;-77.518;2024-01-15T12:20:37;5;3;
65012;PMS5003;51715;39.432;-77.518;2024-01-15T12:23:06;2;1;
65012;PMS5003;51715;39.432;-77.518;2024-01-15T12:25:35;5;3;
65012;PMS5003;51715;39.432;-77.518;2024-01-15T12:28:05;4;4;
65012;PMS5003;51715;39.432;-77.518;2024-01-15T12:30:35;2;2;
65012;PMS5003;51715;39.432;-77.518;2024-01-15T12:33:05;4;4;
65012;PMS5003;51715;39.432;-77.518;2024-01-15T12:35:35;3;3;
65012;PMS5003;51715;39.432;-77.518;2024-01-15T12:38:04;6;6;
65012;PMS5003;51715;39.432;-77.518;2024-01-15T12:40:34;7;4;
65012;PMS5003;51715;39.432;-77.518;2024-01-15T12:43:02;4;4;
65012;PMS5003;51715;39.432;-77.518;2024-01-15T12:45:32;3;3;
65012;PMS5003;51715;39.432;-77.518;2024-01-15T12:48:01;4;4;
65012;PMS5003;51715;39.432;-77.518;2024-01-15T12:50:29;6;5;
65012;PMS5003;51715;39.432;-77.518;2024-01-15T12:52:58;5;4;
65012;PMS5003;51715;39.432;-77.518;2024-01-15T12:55:26;6;5;
65012;PMS5003;51715;39.432;-77.518;2024-01-15T12:57:54;5;5;
65012;PMS5003;51715;39.432;-77.518;2024-01-15T13:00:22;7;7;
65012;PMS5003;51715;39.432;-77.518;2024-01-15T13:02:50;6;6;
65012;PMS5003;51715;39.432;-77.518;2024-01-15T13:05:18;4;4;
65012;PMS5003;51715;39.432;-77.518;2024-01-15T13:07:48;6;6;
65012;PMS5003;51715;39.432;-77.518;2024-01-15T13:10:16;7;7;
65012;PMS5003;51715;39.432;-77.518;2024-01-15T13:12:44;7;7;
65012;PMS5003;51715;39.432;-77.518;2024-01-15T13:15:13;6;6;
65012;PMS5003;51715;39.432;-77.518;2024-01-15T13:17:42;7;6;
65012;PMS5003;51715;39.432;-77.518;2024-01-15T13:20:11;10;7;
65012;PMS5003;51715;39.432;-77.518;2024-01-15T13:22:39;5;5;
65012;PMS5003;51715;39.432;-77.518;2024-01-15T13:25:08;5;5;
65012;PMS5003;51715;39.432;-77.518;2024-01-15T13:27:37;4;4;
65012;PMS5003;51715;39.432;-77.518;2024-01-15T13:30:06;7;6;
65012;PMS5003;51715;39.432;-77.518;2024-01-15T13:32:36;7;7;
65012;PMS5003;51715;39.432;-77.518;2024-01-15T13:35:04;4;4;
65012;PMS5003;51715;39.432;-77.518;2024-01-15T13:37:34;8;5;
65012;PMS5003;51715;39.432;-77.518;2024-01-15T13:40:02;7;5;
65012;PMS5003;51715;39.432;-77.518;2024-01-15T13:42:32;4;4;
65012;PMS5003;51715;39.432;-77.518;2024-01-15T13:45:01;6;5;
65012;PMS5003;51715;39.432;-77.518;2024-01-15T13:47:30;6;6;
65012;PMS5003;51715;39.432;-77.518;2024-01-15T13:49:59;6;5;
65012;PMS5003;51715;39.432;-77.518;2024-01-15T13:52:27;5;5;
65012;PMS5003;51715;39.432;-77.518;2024-01-15T13:54:56;7;7;
65012;PMS5003;51715;39.432;-77.518;2024-01-15T13:57:24;7;6;
65012;PMS5003;51715;39.432;-77.518;2024-01-15T13:59:53;8;8;
65012;PMS5003;51715;39.432;-77.518;2024-01-15T14:02:21;7;7;
65012;PMS5003;51715;39.432;-77.518;2024-01-15T14:04:50;8;8;
65012;PMS5003;51715;39.432;-77.518;2024-01-15T14:07:18;8;6;
65012;PMS5003;51715;39.432;-77.518;2024-01-15T14:09:46;8;8;
65012;PMS5003;51715;39.432;-77.518;2024-01-15T14:12:14;7;7;
65012;PMS5003;51715;39.432;-77.518;2024-01-15T14:14:43;10;10;
65012;PMS5003;51715;39.432;-77.518;2024-01-15T14:17:12;9;7;
65012;PMS5003;51715;39.432;-77.518;2024-01-15T14:19:40;9;8;
65012;PMS5003;51715;39.432;-77.518;2024-01-15T14:22:09;8;6;
65012;PMS5003;51715;39.432;-77.518;2024-01-15T14:24:39;5;5;
65012;PMS5003;51715;39.432;-77.518;2024-01-15T14:27:07;10;8;
65012;PMS5003;51715;39.432;-77.518;2024-01-15T14:29:36;6;5;
65012;PMS5003;51715;39.432;-77.518;2024-01-15T14:32:04;10;7;
65012;PMS5003;51715;39.432;-77.518;2024-01-15T14:34:32;9;9;
65012;PMS5003;51715;39.432;-77.518;2024-01-15T14:37:00;9;9;
65012;PMS5003;51715;39.432;-77.518;2024-01-15T14:39:28;8;6;
65012;PMS5003;51715;39.432;-77.518;2024-01-15T14:41:57;7;7;
65012;PMS5003;51715;39.432;-77.518;2024-01-15T14:44:25;7;6;
65012;PMS5003;51715;39.432;-77.518;2024-01-15T14:46:54;8;7;
65012;PMS5003;51715;39.432;-77.518;2024-01-15T14:49:24;5;5;
65012;PMS5003;51715;39.432;-77.518;2024-01-15T14:51:51;11;6;
65012;PMS5003;51715;39.432;-77.518;2024-01-15T14:54:19;5;5;
65012;PMS5003;51715;39.432;-77.518;2024-01-15T14:56:47;8;8;
65012;PMS5003;51715;39.432;-77.518;2024-01-15T14:59:17;6;6;
65012;PMS5003;51715;39.432;-77.518;2024-01-15T15:01:45;6;5;
65012;PMS5003;51715;39.432;-77.518;2024-01-15T15:04:15;5;4;
65012;PMS5003;51715;39.432;-77.518;2024-01-15T15:06:42;5;5;
65012;PMS5003;51715;39.432;-77.518;2024-01-15T15:09:11;3;3;
65012;PMS5003;51715;39.432;-77.518;2024-01-15T15:11:40;5;5;
65012;PMS5003;51715;39.432;-77.518;2024-01-15T15:14:10;6;5;
65012;PMS5003;51715;39.432;-77.518;2024-01-15T15:16:40;4;4;
65012;PMS5003;51715;39.432;-77.518;2024-01-15T15:19:09;9;8;
65012;PMS5003;51715;39.432;-77.518;2024-01-15T15:21:38;5;4;
65012;PMS5003;51715;39.432;-77.518;2024-01-15T15:24:06;4;4;
65012;PMS5003;51715;39.432;-77.518;2024-01-15T15:26:34;4;4;
65012;PMS5003;51715;39.432;-77.518;2024-01-15T15:29:02;4;4;
65012;PMS5003;51715;39.432;-77.518;2024-01-15T15:31:30;5;5;
65012;PMS5003;51715;39.432;-77.518;2024-01-15T15:33:58;3;3;
65012;PMS5003;51715;39.432;-77.518;2024-01-15T15:36:26;4;4;
65012;PMS5003;51715;39.432;-77.518;2024-01-15T15:38:54;4;4;
65012;PMS5003;51715;39.432;-77.518;2024-01-15T15:41:22;5;5;
65012;PMS5003;51715;39.432;-77.518;2024-01-15T15:43:51;5;3;
65012;PMS5003;51715;39.432;-77.518;2024-01-15T15:46:19;4;4;
65012;PMS5003;51715;39.432;-77.518;2024-01-15T15:48:47;5;5;
65012;PMS5003;51715;39.432;-77.518;2024-01-15T15:51:15;6;6;
65012;PMS5003;51715;39.432;-77.518;2024-01-15T15:53:45;4;3;
65012;PMS5003;51715;39.432;-77.518;2024-01-15T15:56:13;6;4;
65012;PMS5003;51715;39.432;-77.518;2024-01-15T15:58:41;5;5;
65012;PMS5003;51715;39.432;-77.518;2024-01-15T16:01:10;5;3;
65012;PMS5003;51715;39.432;-77.518;2024-01-15T16:03:38;4;4;
65012;PMS5003;51715;39.432;-77.518;2024-01-15T16:06:06;6;6;
65012;PMS5003;51715;39.432;-77.518;2024-01-15T16:08:36;6;6;
65012;PMS5003;51715;39.432;-77.518;2024-01-15T16:11:07;5;5;
65012;PMS5003;51715;39.432;-77.518;2024-01-15T16:13:35;3;3;
65012;PMS5003;51715;39.432;-77.518;2024-01-15T16:16:03;8;6;
65012;PMS5003;51715;39.432;-77.518;2024-01-15T16:18:32;6;4;
65012;PMS5003;51715;39.432;-77.518;2024-01-15T16:21:02;5;4;
65012;PMS5003;51715;39.432;-77.518;2024-01-15T16:23:31;5;5;
65012;PMS5003;51715;39.432;-77.518;2024-01-15T16:25:58;4;4;
65012;PMS5003;51715;39.432;-77.518;2024-01-15T16:28:26;10;8;
65012;PMS5003;51715;39.432;-77.518;2024-01-15T16:30:55;7;7;
65012;PMS5003;51715;39.432;-77.518;2024-01-15T16:33:23;7;7;